Time;durP1;ratioP1;P1;durP2;ratioP2;P2;SDS_P1;SDS_P2;PMS_P1;PMS_P2;Temp;Humidity;BMP_temperature;BMP_pressure;BME280_temperature;BME280_humidity;BME280_pressure;Samples;Min_cycle;Max_cycle;Signal;HPM_P1;HPM_P2
2022/04/02 00:00:06;;;;;;;;;;;;;;;0.17;71.11;101453.09;6126459;23;19909;-73
2022/04/02 00:02:32;;;;;;;;;;;;;;;0.17;71.62;101450.50;6126491;23;20315;-74
2022/04/02 00:04:57;;;;;;;;;;;;;;;0.17;71.28;101453.09;6152306;23;19919;-74
2022/04/02 00:07:23;;;;;;;;;;;;;;;0.17;71.54;101447.94;6125502;23;19913;-72
2022/04/02 00:09:48;;;;;;;;;;;;;;;0.16;71.17;101459.09;6101787;23;20327;-74
2022/04/02 00:12:13;;;;;;;;;;;;;;;0.20;71.34;101465.22;6101913;23;19936;-73
2022/04/02 00:14:39;;;;;;;;;;;;;;;0.20;71.29;101460.06;6127182;23;20011;-75
2022/04/02 00:17:05;;;;;;;;;;;;;;;0.22;71.04;101463.59;6125884;23;19940;-73
2022/04/02 00:19:30;;;;;;;;;;;;;;;0.26;70.71;101468.03;6101674;23;19912;-70
2022/04/02 00:21:56;;;;;;;;;;;;;;;0.26;70.45;101465.47;6125838;23;19948;-72
2022/04/02 00:24:22;;;;;;;;;;;;;;;0.29;70.42;101471.63;6102420;23;19917;-74
2022/04/02 00:26:47;;;;;;;;;;;;;;;0.28;70.66;101466.44;6102408;23;19920;-73
2022/04/02 00:29:13;;;;;;;;;;;;;;;0.27;70.67;101467.22;6125629;23;19913;-73
2022/04/02 00:31:41;;;;;;;;;;;;;;;0.27;70.46;101473.25;6126415;23;20381;-73
2022/04/02 00:34:06;;;;;;;;;;;;;;;0.25;70.45;101469.75;6102788;23;19917;-72
2022/04/02 00:36:37;;;;;;;;;;;;;;;0.24;70.59;101467.97;6102543;23;19931;-73
2022/04/02 00:39:02;;;;;;;;;;;;;;;0.26;70.78;101466.38;6102876;23;19916;-74
2022/04/02 00:41:28;;;;;;;;;;;;;;;0.23;70.75;101466.25;6103475;23;19920;-72
2022/04/02 00:43:58;;;;;;;;;;;;;;;0.23;70.42;101462.75;6100181;23;20250;-72
2022/04/02 00:46:24;;;;;;;;;;;;;;;0.21;70.69;101462.72;6126808;23;19912;-73
2022/04/02 00:48:50;;;;;;;;;;;;;;;0.18;70.55;101457.44;6102131;23;20004;-74
2022/04/02 00:51:18;;;;;;;;;;;;;;;0.15;70.59;101459.91;6103145;23;19917;-74
2022/04/02 00:53:46;;;;;;;;;;;;;;;0.12;70.54;101465.78;6126857;23;19909;-74
2022/04/02 00:56:13;;;;;;;;;;;;;;;0.11;70.59;101460.59;6127040;23;19908;-74
2022/04/02 00:58:39;;;;;;;;;;;;;;;0.09;70.48;101467.38;6126028;23;19909;-73
2022/04/02 01:01:06;;;;;;;;;;;;;;;0.08;70.63;101466.47;6102217;23;19987;-74
2022/04/02 01:03:36;;;;;;;;;;;;;;;0.06;70.88;101467.22;6103333;23;19936;-73
2022/04/02 01:06:02;;;;;;;;;;;;;;;0.05;70.80;101462.91;6102369;23;19912;-73
2022/04/02 01:08:28;;;;;;;;;;;;;;;0.05;70.83;101465.50;6101521;23;20623;-73
2022/04/02 01:10:55;;;;;;;;;;;;;;;0.03;71.06;101467.09;6101296;23;19924;-73
2022/04/02 01:13:22;;;;;;;;;;;;;;;0.04;71.26;101476.59;6125938;23;19909;-74
2022/04/02 01:15:49;;;;;;;;;;;;;;;-0.01;70.93;101469.56;6127031;23;20374;-73
2022/04/02 01:18:15;;;;;;;;;;;;;;;-0.01;70.94;101472.13;6101785;23;19936;-73
2022/04/02 01:20:40;;;;;;;;;;;;;;;-0.01;70.93;101474.72;6102444;23;19935;-73
2022/04/02 01:23:06;;;;;;;;;;;;;;;-0.03;70.70;101468.63;6101641;23;19912;-74
2022/04/02 01:25:32;;;;;;;;;;;;;;;-0.05;70.89;101469.38;6126337;23;19909;-74
2022/04/02 01:27:59;;;;;;;;;;;;;;;-0.04;71.28;101466.88;6125830;23;19920;-73
2022/04/02 01:30:24;;;;;;;;;;;;;;;-0.06;70.89;101463.34;6126612;23;19925;-73
2022/04/02 01:32:50;;;;;;;;;;;;;;;-0.09;71.26;101468.34;6125854;23;20319;-72
2022/04/02 01:35:15;;;;;;;;;;;;;;;-0.12;71.06;101457.94;6102422;23;19919;-74
2022/04/02 01:37:41;;;;;;;;;;;;;;;-0.14;71.28;101459.56;6125801;23;19960;-74
2022/04/02 01:40:09;;;;;;;;;;;;;;;-0.16;71.36;101460.31;6101273;23;20294;-74
2022/04/02 01:42:37;;;;;;;;;;;;;;;-0.19;71.38;101461.06;6100635;23;19923;-73
2022/04/02 01:45:03;;;;;;;;;;;;;;;-0.22;71.16;101458.34;6126847;23;19909;-74
2022/04/02 01:47:29;;;;;;;;;;;;;;;-0.24;71.36;101458.31;6102456;23;20008;-74
2022/04/02 01:49:55;;;;;;;;;;;;;;;-0.24;71.30;101458.31;6101198;23;20343;-74
2022/04/02 01:52:25;;;;;;;;;;;;;;;-0.26;71.14;101461.63;6125647;23;19909;-73
2022/04/02 01:54:51;;;;;;;;;;;;;;;-0.29;71.68;101462.38;6102556;23;19912;-72
2022/04/02 01:57:46;;;;;;;;;;;;;;;-0.31;71.54;101474.31;6153273;23;19912;-73
2022/04/02 02:00:12;;;;;;;;;;;;;;;-0.28;71.61;101468.41;6154777;23;19932;-72
2022/04/02 02:02:39;;;;;;;;;;;;;;;-0.30;71.52;101477.75;6103313;23;19963;-72
2022/04/02 02:05:05;;;;;;;;;;;;;;;-0.31;71.21;101470.88;6103423;23;19979;-73
2022/04/02 02:07:30;;;;;;;;;;;;;;;-0.28;71.53;101471.84;6102878;23;20291;-71
2022/04/02 02:09:57;;;;;;;;;;;;;;;-0.27;70.91;101472.75;6103262;23;19923;-73
2022/04/02 02:12:23;;;;;;;;;;;;;;;-0.24;70.94;101472.88;6103155;23;19935;-73
2022/04/02 02:14:48;;;;;;;;;;;;;;;-0.23;70.89;101484.94;6103427;23;19917;-72
2022/04/02 02:17:15;;;;;;;;;;;;;;;-0.21;70.39;101480.75;6102914;23;19959;-71
2022/04/02 02:19:40;;;;;;;;;;;;;;;-0.15;70.51;101482.69;6103383;23;19916;-73
2022/04/02 02:22:09;;;;;;;;;;;;;;;-0.14;70.52;101484.44;6102315;23;19963;-72
2022/04/02 02:24:35;;;;;;;;;;;;;;;-0.12;70.41;101483.69;6153737;23;19917;-72
2022/04/02 02:27:01;;;;;;;;;;;;;;;-0.16;70.38;101481.78;6103483;23;19912;-72
2022/04/02 02:29:26;;;;;;;;;;;;;;;-0.16;70.41;101489.53;6102268;23;19920;-71
2022/04/02 02:31:51;;;;;;;;;;;;;;;-0.16;70.30;101486.94;6127808;23;19915;-72
2022/04/02 02:37:01;;;;;;;;;;;;;;;-0.16;70.16;101489.53;6130687;23;19956;-73
2022/04/02 02:39:26;;;;;;;;;;;;;;;-0.17;70.37;101495.50;6102843;23;19920;-71
2022/04/02 02:41:51;;;;;;;;;;;;;;;-0.15;69.71;101491.28;6103457;23;20323;-72
2022/04/02 02:44:17;;;;;;;;;;;;;;;-0.08;69.39;101490.75;6102105;23;20219;-71
2022/04/02 02:46:42;;;;;;;;;;;;;;;-0.08;69.31;101490.75;6103515;23;19905;-71
2022/04/02 02:49:08;;;;;;;;;;;;;;;-0.09;69.18;101491.53;6102465;23;20358;-72
2022/04/02 02:51:33;;;;;;;;;;;;;;;-0.02;69.15;101492.69;6126646;23;19952;-70
2022/04/02 02:53:58;;;;;;;;;;;;;;;-0.06;68.71;101494.28;6102294;23;19912;-73
2022/04/02 02:56:24;;;;;;;;;;;;;;;-0.06;68.91;101485.66;6102687;23;19920;-71
2022/04/02 02:58:49;;;;;;;;;;;;;;;-0.07;69.01;101489.94;6102945;23;20388;-71
2022/04/02 03:01:14;;;;;;;;;;;;;;;-0.04;68.78;101489.19;6102547;23;19912;-72
2022/04/02 03:03:40;;;;;;;;;;;;;;;-0.07;69.00;101481.31;6102639;23;19996;-71
2022/04/02 03:06:08;;;;;;;;;;;;;;;-0.10;68.92;101489.81;6103301;23;19913;-72
2022/04/02 03:08:34;;;;;;;;;;;;;;;-0.08;68.75;101493.31;6101902;23;19936;-71
2022/04/02 03:11:00;;;;;;;;;;;;;;;-0.06;68.65;101483.06;6102098;23;20243;-71
2022/04/02 03:13:26;;;;;;;;;;;;;;;-0.05;68.62;101484.84;6126326;23;20235;-72
2022/04/02 03:15:54;;;;;;;;;;;;;;;-0.05;68.53;101479.69;6103315;23;19919;-71
2022/04/02 03:18:20;;;;;;;;;;;;;;;-0.03;68.41;101478.94;6101894;23;19913;-71
2022/04/02 03:20:45;;;;;;;;;;;;;;;0.00;67.97;101483.34;6102892;23;19912;-71
2022/04/02 03:23:10;;;;;;;;;;;;;;;-0.02;68.01;101485.84;6101942;23;19923;-71
2022/04/02 03:25:36;;;;;;;;;;;;;;;-0.02;68.42;101495.28;6102762;23;19916;-73
2022/04/02 03:28:01;;;;;;;;;;;;;;;0.02;67.94;101497.16;6102514;23;19912;-71
2022/04/02 03:30:27;;;;;;;;;;;;;;;0.07;67.79;101498.25;6127002;23;19939;-72
2022/04/02 03:32:53;;;;;;;;;;;;;;;0.03;67.57;101493.78;6102721;23;19920;-73
2022/04/02 03:35:18;;;;;;;;;;;;;;;0.04;67.20;101499.81;6127347;23;20395;-72
2022/04/02 03:37:45;;;;;;;;;;;;;;;0.12;67.17;101514.75;6102673;23;19920;-70
2022/04/02 03:40:14;;;;;;;;;;;;;;;0.11;67.06;101502.69;6102317;23;19971;-72
2022/04/02 03:42:41;;;;;;;;;;;;;;;0.15;66.52;101509.72;6127248;23;19936;-71
2022/04/02 03:45:10;;;;;;;;;;;;;;;0.14;67.14;101518.31;6127040;23;20339;-71
2022/04/02 03:47:38;;;;;;;;;;;;;;;0.19;66.24;101521.06;6126887;23;20319;-73
2022/04/02 03:50:04;;;;;;;;;;;;;;;0.12;66.44;101513.91;6103232;23;19916;-70
2022/04/02 03:52:29;;;;;;;;;;;;;;;0.09;66.52;101521.50;6102046;23;20047;-72
2022/04/02 03:54:55;;;;;;;;;;;;;;;0.09;67.11;101526.66;6103077;23;20330;-73
2022/04/02 03:57:21;;;;;;;;;;;;;;;0.05;67.16;101523.06;6101485;23;19916;-72
2022/04/02 03:59:46;;;;;;;;;;;;;;;0.03;67.46;101526.38;6127744;23;19904;-72
2022/04/02 04:02:12;;;;;;;;;;;;;;;0.01;67.12;101525.44;6127020;23;19947;-71
2022/04/02 04:04:40;;;;;;;;;;;;;;;-0.02;67.22;101523.63;6102216;23;19912;-71
2022/04/02 04:07:07;;;;;;;;;;;;;;;-0.06;67.94;101526.88;6126527;23;19989;-71
2022/04/02 04:09:32;;;;;;;;;;;;;;;-0.12;67.65;101529.19;6126203;23;19952;-70
2022/04/02 04:11:58;;;;;;;;;;;;;;;-0.18;68.37;101535.84;6126955;23;19920;-72
2022/04/02 04:14:24;;;;;;;;;;;;;;;-0.22;68.18;101541.66;6101449;23;19920;-73
2022/04/02 04:16:50;;;;;;;;;;;;;;;-0.26;68.52;101533.75;6102692;23;20366;-73
2022/04/02 04:19:18;;;;;;;;;;;;;;;-0.32;68.76;101528.34;6125371;23;19915;-73
2022/04/02 04:21:46;;;;;;;;;;;;;;;-0.36;68.85;101535.03;6125981;23;19923;-73
2022/04/02 04:24:12;;;;;;;;;;;;;;;-0.40;69.33;101538.31;6102022;23;19921;-73
2022/04/02 04:26:38;;;;;;;;;;;;;;;-0.45;69.33;101539.78;6126683;23;19958;-73
2022/04/02 04:29:03;;;;;;;;;;;;;;;-0.50;69.31;101542.16;6125884;23;19917;-73
2022/04/02 04:31:29;;;;;;;;;;;;;;;-0.53;69.29;101542.03;6126722;23;19912;-72
2022/04/02 04:33:56;;;;;;;;;;;;;;;-0.54;69.47;101550.56;6102011;23;20393;-71
2022/04/02 04:36:22;;;;;;;;;;;;;;;-0.62;69.53;101542.47;6125952;23;19909;-72
2022/04/02 04:38:50;;;;;;;;;;;;;;;-0.65;69.42;101537.19;6101806;23;19990;-72
2022/04/02 04:41:17;;;;;;;;;;;;;;;-0.67;69.94;101546.53;6126501;23;19920;-72
2022/04/02 04:43:43;;;;;;;;;;;;;;;-0.72;69.82;101546.34;6125722;23;19955;-73
2022/04/02 04:46:08;;;;;;;;;;;;;;;-0.75;69.83;101553.94;6102288;23;19916;-74
2022/04/02 04:48:37;;;;;;;;;;;;;;;-0.80;70.38;101552.81;6125769;23;19920;-73
2022/04/02 04:51:03;;;;;;;;;;;;;;;-0.81;70.47;101555.34;6125339;23;19912;-74
2022/04/02 04:53:28;;;;;;;;;;;;;;;-0.85;70.54;101559.44;6125901;23;20336;-74
2022/04/02 04:55:53;;;;;;;;;;;;;;;-0.89;70.02;101562.69;6101905;23;20243;-73
2022/04/02 04:58:19;;;;;;;;;;;;;;;-0.89;70.14;101566.16;6101550;23;19916;-73
2022/04/02 05:00:44;;;;;;;;;;;;;;;-0.89;70.08;101565.25;6101632;23;19935;-73
2022/04/02 05:03:13;;;;;;;;;;;;;;;-0.87;70.19;101571.38;6125583;23;20026;-72
2022/04/02 05:05:41;;;;;;;;;;;;;;;-0.86;70.72;101575.72;6125800;23;19988;-72
2022/04/02 05:08:07;;;;;;;;;;;;;;;-0.87;70.11;101576.50;6125947;23;19944;-71
2022/04/02 05:10:33;;;;;;;;;;;;;;;-0.83;70.30;101577.53;6101306;23;19979;-71
2022/04/02 05:12:58;;;;;;;;;;;;;;;-0.82;70.01;101590.50;6126200;23;19940;-72
2022/04/02 05:15:25;;;;;;;;;;;;;;;-0.82;70.09;101587.91;6101626;23;19916;-73
2022/04/02 05:17:50;;;;;;;;;;;;;;;-0.79;69.97;101588.06;6126305;23;20012;-71
2022/04/02 05:20:17;;;;;;;;;;;;;;;-0.76;69.75;101580.47;6102088;23;19975;-73
2022/04/02 05:22:42;;;;;;;;;;;;;;;-0.73;69.94;101590.03;6096591;23;19928;-72
2022/04/02 05:25:10;;;;;;;;;;;;;;;-0.68;69.46;101587.66;6096730;23;20020;-71
2022/04/02 05:27:36;;;;;;;;;;;;;;;-0.65;69.25;101591.25;6120962;23;19913;-73
2022/04/02 05:30:03;;;;;;;;;;;;;;;-0.59;69.45;101598.38;6121261;23;19943;-72
2022/04/02 05:32:30;;;;;;;;;;;;;;;-0.53;69.25;101601.25;6122433;23;19959;-72
2022/04/02 05:34:56;;;;;;;;;;;;;;;-0.52;69.53;101605.56;6099375;23;20597;-71
2022/04/02 05:37:23;;;;;;;;;;;;;;;-0.46;69.20;101615.25;6121211;23;19908;-72
2022/04/02 05:39:49;;;;;;;;;;;;;;;-0.43;69.02;101615.41;6123266;23;20356;-73
2022/04/02 05:42:14;;;;;;;;;;;;;;;-0.41;69.30;101616.38;6096232;23;19955;-73
2022/04/02 05:44:40;;;;;;;;;;;;;;;-0.37;69.38;101616.56;6097660;23;19941;-74
2022/04/02 05:47:07;;;;;;;;;;;;;;;-0.31;68.72;101620.25;6098228;23;19921;-72
2022/04/02 05:49:32;;;;;;;;;;;;;;;-0.27;69.17;101620.44;6121399;23;19979;-73
2022/04/02 05:51:58;;;;;;;;;;;;;;;-0.16;68.86;101631.22;6099010;23;20289;-72
2022/04/02 05:54:23;;;;;;;;;;;;;;;-0.11;68.58;101634.03;6121323;23;20283;-71
2022/04/02 05:56:49;;;;;;;;;;;;;;;-0.07;68.76;101629.06;6099423;23;19920;-74
2022/04/02 05:59:14;;;;;;;;;;;;;;;-0.02;68.66;101635.28;6123598;23;19909;-73
2022/04/02 06:01:40;;;;;;;;;;;;;;;0.02;68.44;101640.59;6097501;23;19913;-73
2022/04/02 06:04:05;;;;;;;;;;;;;;;0.09;68.13;101645.22;6123629;23;19924;-71
2022/04/02 06:06:33;;;;;;;;;;;;;;;0.13;67.82;101642.81;6099467;23;19996;-73
2022/04/02 06:08:58;;;;;;;;;;;;;;;0.19;67.94;101649.94;6097554;23;19917;-73
2022/04/02 06:11:24;;;;;;;;;;;;;;;0.24;67.97;101655.28;6099198;23;19996;-71
2022/04/02 06:13:52;;;;;;;;;;;;;;;0.27;67.70;101653.72;6099023;23;19917;-71
2022/04/02 06:16:21;;;;;;;;;;;;;;;0.34;67.91;101660.03;6123270;23;20403;-72
2022/04/02 06:18:46;;;;;;;;;;;;;;;0.39;67.42;101658.53;6100560;23;19920;-71
2022/04/02 06:21:11;;;;;;;;;;;;;;;0.45;67.71;101660.50;6125242;23;19912;-72
2022/04/02 06:23:37;;;;;;;;;;;;;;;0.52;67.64;101660.81;6103432;23;19923;-72
2022/04/02 06:26:02;;;;;;;;;;;;;;;0.57;67.19;101662.72;6104152;23;19995;-72
2022/04/02 06:28:27;;;;;;;;;;;;;;;0.63;67.26;101670.69;6103582;23;19967;-70
2022/04/02 06:30:53;;;;;;;;;;;;;;;0.69;67.28;101673.56;6104750;23;19978;-73
2022/04/02 06:33:18;;;;;;;;;;;;;;;0.76;67.12;101682.44;6128086;23;19917;-72
2022/04/02 06:35:43;;;;;;;;;;;;;;;0.85;66.82;101683.69;6104292;23;20343;-71
2022/04/02 06:38:08;;;;;;;;;;;;;;;0.90;67.27;101683.88;6127941;23;19956;-73
2022/04/02 06:40:34;;;;;;;;;;;;;;;1.04;66.71;101692.19;6102842;23;20331;-72
2022/04/02 06:42:59;;;;;;;;;;;;;;;1.15;66.22;101690.03;6127548;23;19908;-73
2022/04/02 06:45:25;;;;;;;;;;;;;;;1.20;66.24;101696.28;6103655;23;19912;-72
2022/04/02 06:47:50;;;;;;;;;;;;;;;1.24;65.34;101695.59;6128372;23;20314;-71
2022/04/02 06:50:16;;;;;;;;;;;;;;;1.27;66.18;101695.69;6104214;23;19916;-73
2022/04/02 06:52:42;;;;;;;;;;;;;;;1.36;66.16;101695.19;6126947;23;19944;-73
2022/04/02 06:55:08;;;;;;;;;;;;;;;1.42;65.86;101700.59;6127888;23;19909;-72
2022/04/02 06:57:39;;;;;;;;;;;;;;;1.44;64.92;101705.81;6127982;23;19913;-72
2022/04/02 07:00:05;;;;;;;;;;;;;;;1.50;65.39;101706.06;6128970;23;19923;-71
2022/04/02 07:02:31;;;;;;;;;;;;;;;1.55;65.07;101712.28;6103164;23;19919;-73
2022/04/02 07:04:56;;;;;;;;;;;;;;;1.63;64.92;101710.88;6104044;23;19913;-72
2022/04/02 07:07:22;;;;;;;;;;;;;;;1.73;65.04;101712.13;6101003;23;19917;-73
2022/04/02 07:09:47;;;;;;;;;;;;;;;1.81;65.36;101722.75;6128203;23;19913;-72
2022/04/02 07:12:12;;;;;;;;;;;;;;;1.92;64.65;101718.88;6103185;23;19920;-73
2022/04/02 07:14:38;;;;;;;;;;;;;;;2.02;64.80;101718.38;6103324;23;19939;-71
2022/04/02 07:17:04;;;;;;;;;;;;;;;2.14;65.00;101723.16;6103956;23;19931;-73
2022/04/02 07:19:30;;;;;;;;;;;;;;;2.30;63.73;101722.00;6103311;23;20311;-74
2022/04/02 07:21:55;;;;;;;;;;;;;;;2.47;64.76;101730.38;6103517;23;19935;-72
2022/04/02 07:24:24;;;;;;;;;;;;;;;2.60;63.80;101735.16;6128235;23;20008;-72
2022/04/02 07:26:54;;;;;;;;;;;;;;;2.78;64.03;101736.63;6127372;23;19944;-72
2022/04/02 07:29:19;;;;;;;;;;;;;;;3.04;64.35;101734.91;6127838;23;19909;-71
2022/04/02 07:31:45;;;;;;;;;;;;;;;3.47;62.91;101748.38;6127730;23;19913;-72
2022/04/02 07:34:10;;;;;;;;;;;;;;;3.94;62.85;101748.13;6103468;23;20307;-72
2022/04/02 07:36:54;;;;;;;;;;;;;;;4.56;61.16;101749.88;6103241;23;19932;-73
2022/04/02 07:39:33;;;;;;;;;;;;;;;5.53;60.78;101753.22;6127387;23;19908;-72
2022/04/02 07:41:58;;;;;;;;;;;;;;;6.43;58.00;101747.38;6128207;23;20079;-72
2022/04/02 07:44:32;;;;;;;;;;;;;;;6.97;57.52;101751.00;6126814;23;19940;-73
2022/04/02 07:46:58;;;;;;;;;;;;;;;7.59;56.59;101758.09;6127769;23;19908;-75
2022/04/02 07:49:26;;;;;;;;;;;;;;;7.63;55.94;101759.03;6127979;23;19909;-74
2022/04/02 07:51:53;;;;;;;;;;;;;;;7.17;57.20;101766.97;6126562;23;19908;-71
2022/04/02 07:54:20;;;;;;;;;;;;;;;6.59;56.28;101770.28;6126892;23;19994;-73
2022/04/02 07:56:48;;;;;;;;;;;;;;;6.33;57.52;101774.06;6127420;23;20608;-73
2022/04/02 07:59:34;;;;;;;;;;;;;;;6.35;58.91;101774.97;6127152;23;19912;-72
2022/04/02 08:02:00;;;;;;;;;;;;;;;6.50;57.36;101770.09;6127642;23;19912;-74
2022/04/02 08:04:27;;;;;;;;;;;;;;;7.13;57.41;101767.78;6103464;23;19916;-73
2022/04/02 08:06:52;;;;;;;;;;;;;;;7.59;55.45;101773.75;6126718;23;20015;-72
2022/04/02 08:09:19;;;;;;;;;;;;;;;7.55;56.13;101771.94;6102473;23;20044;-72
2022/04/02 08:11:46;;;;;;;;;;;;;;;7.44;54.54;101777.00;6127821;23;19983;-75
2022/04/02 08:14:11;;;;;;;;;;;;;;;7.06;54.01;101776.34;6127840;23;19909;-74
2022/04/02 08:16:43;;;;;;;;;;;;;;;6.90;55.75;101770.84;6102961;23;19996;-73
2022/04/02 08:19:09;;;;;;;;;;;;;;;7.26;54.48;101787.97;6128229;23;19912;-71
2022/04/02 08:21:37;;;;;;;;;;;;;;;7.31;54.67;101788.06;6126230;23;19917;-72
2022/04/02 08:24:03;;;;;;;;;;;;;;;7.26;53.90;101785.38;6127110;23;19909;-72
2022/04/02 08:26:29;;;;;;;;;;;;;;;7.47;54.37;101784.00;6127823;23;19948;-73
2022/04/02 08:29:01;;;;;;;;;;;;;;;7.83;53.92;101790.63;6126942;23;20312;-73
2022/04/02 08:31:31;;;;;;;;;;;;;;;7.79;53.04;101786.22;6126044;23;20293;-73
2022/04/02 08:34:15;;;;;;;;;;;;;;;7.33;52.80;101801.16;6127035;23;19919;-72
2022/04/02 08:36:47;;;;;;;;;;;;;;;6.58;53.92;101799.78;6126801;23;20004;-74
2022/04/02 08:39:42;;;;;;;;;;;;;;;5.96;56.14;101810.56;6127135;23;19967;-72
2022/04/02 08:42:22;;;;;;;;;;;;;;;5.50;56.00;101807.75;5999560;23;19921;-74
2022/04/02 08:44:50;;;;;;;;;;;;;;;5.20;57.52;101810.44;6127384;23;19919;-74
2022/04/02 08:47:22;;;;;;;;;;;;;;;5.14;57.22;101807.69;6127663;23;19946;-73
2022/04/02 08:50:08;;;;;;;;;;;;;;;5.88;55.91;101812.97;6125484;23;19939;-74
2022/04/02 08:52:46;;;;;;;;;;;;;;;6.14;55.50;101814.47;6126927;23;19912;-73
2022/04/02 08:55:27;;;;;;;;;;;;;;;6.42;55.51;101813.31;6126000;23;19987;-71
2022/04/02 08:57:52;;;;;;;;;;;;;;;6.72;56.17;101814.78;6126472;23;19927;-73
2022/04/02 09:00:23;;;;;;;;;;;;;;;7.28;55.59;101817.59;6127096;23;20090;-72
2022/04/02 09:03:27;;;;;;;;;;;;;;;7.31;52.41;101813.25;6126684;23;19913;-72
2022/04/02 09:06:08;;;;;;;;;;;;;;;6.59;53.93;101832.78;5983118;23;20015;-73
2022/04/02 09:09:12;;;;;;;;;;;;;;;6.64;54.56;101824.16;5983955;23;19914;-72
2022/04/02 09:11:37;;;;;;;;;;;;;;;7.35;53.63;101834.19;6021983;23;19918;-74
2022/04/02 09:14:09;;;;;;;;;;;;;;;7.46;53.01;101835.25;6040878;23;19933;-72
2022/04/02 09:16:52;;;;;;;;;;;;;;;7.55;53.24;101836.28;6083866;23;19959;-72
2022/04/02 09:19:28;;;;;;;;;;;;;;;7.25;51.63;101840.97;6127588;23;20323;-73
2022/04/02 09:22:03;;;;;;;;;;;;;;;7.14;53.05;101834.72;6127650;23;19927;-72
2022/04/02 09:24:37;;;;;;;;;;;;;;;6.93;54.24;101841.25;6128867;23;19913;-71
2022/04/02 09:27:21;;;;;;;;;;;;;;;6.47;54.03;101842.06;6127985;23;20051;-74
2022/04/02 09:30:07;;;;;;;;;;;;;;;5.93;53.99;101846.03;6128470;23;19919;-72
2022/04/02 09:32:53;;;;;;;;;;;;;;;5.71;56.04;101845.50;6128845;23;19915;-71
2022/04/02 09:35:21;;;;;;;;;;;;;;;5.59;55.55;101848.69;6129144;23;20323;-70
2022/04/02 09:38:16;;;;;;;;;;;;;;;5.64;55.38;101856.59;6128308;23;19998;-71
2022/04/02 09:40:46;;;;;;;;;;;;;;;5.54;56.35;101845.97;6128270;23;20338;-72
2022/04/02 09:43:18;;;;;;;;;;;;;;;5.52;55.32;101854.59;6127681;23;19904;-71
2022/04/02 09:45:52;;;;;;;;;;;;;;;5.69;55.19;101861.09;6128913;23;20221;-72
2022/04/02 09:48:23;;;;;;;;;;;;;;;6.01;54.51;101857.53;6129003;23;19908;-71
2022/04/02 09:50:54;;;;;;;;;;;;;;;6.39;54.28;101850.59;6128628;23;20011;-74
2022/04/02 09:53:27;;;;;;;;;;;;;;;6.76;53.87;101855.69;6128663;23;20319;-71
2022/04/02 09:56:10;;;;;;;;;;;;;;;6.53;53.32;101852.59;6127913;23;19909;-71
2022/04/02 09:58:55;;;;;;;;;;;;;;;6.20;54.75;101854.50;6127924;23;20021;-72
2022/04/02 10:01:20;;;;;;;;;;;;;;;5.96;53.99;101859.09;6128104;23;19916;-71
2022/04/02 10:03:48;;;;;;;;;;;;;;;5.63;55.31;101860.03;6128605;23;19909;-70
2022/04/02 10:06:34;;;;;;;;;;;;;;;5.49;54.46;101857.97;6128629;23;19936;-72
2022/04/02 10:09:05;;;;;;;;;;;;;;;5.46;55.64;101852.72;6127835;23;19939;-72
2022/04/02 10:11:34;;;;;;;;;;;;;;;5.48;54.87;101856.22;6128367;23;20021;-71
2022/04/02 10:14:00;;;;;;;;;;;;;;;5.42;55.21;101850.88;6127774;23;20303;-71
2022/04/02 10:16:26;;;;;;;;;;;;;;;5.25;55.62;101852.16;6129336;23;19912;-71
2022/04/02 10:18:53;;;;;;;;;;;;;;;5.70;55.50;101847.25;6127659;23;19908;-70
2022/04/02 10:21:19;;;;;;;;;;;;;;;7.42;53.45;101837.78;6103434;23;20240;-71
2022/04/02 10:23:50;;;;;;;;;;;;;;;8.14;49.11;101835.44;6104010;23;19912;-71
2022/04/02 10:26:16;;;;;;;;;;;;;;;7.98;50.00;101819.53;6128443;23;19908;-70
2022/04/02 10:28:51;;;;;;;;;;;;;;;8.35;49.65;101816.59;6103506;23;19991;-73
2022/04/02 10:31:22;;;;;;;;;;;;;;;8.89;48.33;101821.59;6128132;23;20327;-72
2022/04/02 10:33:52;;;;;;;;;;;;;;;8.47;49.78;101821.13;6127462;23;19958;-71
2022/04/02 10:36:19;;;;;;;;;;;;;;;8.17;49.63;101822.41;6128463;23;19932;-71
2022/04/02 10:38:50;;;;;;;;;;;;;;;8.02;51.75;101827.44;6127904;23;20012;-73
2022/04/02 10:41:18;;;;;;;;;;;;;;;7.79;50.65;101821.00;6128843;23;19963;-72
2022/04/02 10:43:51;;;;;;;;;;;;;;;7.32;47.93;101821.09;6127575;23;19908;-72
2022/04/02 10:46:19;;;;;;;;;;;;;;;6.81;51.49;101822.78;6128937;23;19931;-71
2022/04/02 10:48:54;;;;;;;;;;;;;;;6.82;48.60;101819.31;6104340;23;19919;-71
2022/04/02 10:51:21;;;;;;;;;;;;;;;7.22;49.30;101817.44;6128870;23;19951;-70
2022/04/02 10:53:49;;;;;;;;;;;;;;;7.41;52.32;101823.00;6127590;23;19983;-70
2022/04/02 10:56:16;;;;;;;;;;;;;;;7.54;50.97;101824.97;6104226;23;19919;-71
2022/04/02 10:58:45;;;;;;;;;;;;;;;7.21;51.51;101823.53;6127833;23;19909;-71
2022/04/02 11:01:12;;;;;;;;;;;;;;;6.98;52.68;101833.50;6128076;23;19912;-71
2022/04/02 11:03:42;;;;;;;;;;;;;;;6.67;51.94;101819.91;6103436;23;20015;-70
2022/04/02 11:06:09;;;;;;;;;;;;;;;6.49;52.65;101824.75;6127835;23;19995;-70
2022/04/02 11:08:35;;;;;;;;;;;;;;;6.44;52.97;101831.56;6127565;23;19915;-69
2022/04/02 11:11:16;;;;;;;;;;;;;;;7.14;52.84;101823.38;6102246;23;19921;-70
2022/04/02 11:13:44;;;;;;;;;;;;;;;8.01;51.26;101828.28;6126445;23;19920;-71
2022/04/02 11:16:14;;;;;;;;;;;;;;;7.98;50.58;101824.78;6127103;23;19908;-70
2022/04/02 11:19:53;;;;;;;;;;;;;;;7.63;50.87;101832.06;6127090;23;19979;-72
2022/04/02 11:21:27;;;;;;;;;;;;;;;7.31;51.17;101826.31;6131450;23;19929;-73
2022/04/02 11:23:59;;;;;;;;;;;;;;;7.13;52.36;101825.13;6125891;23;19908;-71
2022/04/02 11:26:27;;;;;;;;;;;;;;;6.84;52.19;101822.84;6151532;23;20002;-71
2022/04/02 11:28:58;;;;;;;;;;;;;;;6.55;52.73;101819.66;6124578;23;19983;-71
2022/04/02 11:31:30;;;;;;;;;;;;;;;6.39;51.84;101823.66;6126578;23;19952;-72
2022/04/02 11:33:57;;;;;;;;;;;;;;;6.36;52.94;101821.00;6125632;23;19924;-70
2022/04/02 11:36:35;;;;;;;;;;;;;;;6.45;49.00;101818.59;6126380;23;19998;-70
2022/04/02 11:39:10;;;;;;;;;;;;;;;6.78;50.30;101817.53;6151441;23;19912;-70
2022/04/02 11:41:38;;;;;;;;;;;;;;;7.00;49.08;101829.22;6125817;23;20236;-70
2022/04/02 11:44:08;;;;;;;;;;;;;;;6.89;48.77;101830.75;6124762;23;19992;-72
2022/04/02 11:46:54;;;;;;;;;;;;;;;7.02;49.25;101829.25;6126308;23;19916;-72
2022/04/02 11:49:31;;;;;;;;;;;;;;;7.04;48.80;101831.06;6125302;23;20345;-71
2022/04/02 11:52:01;;;;;;;;;;;;;;;6.91;49.13;101835.16;6125156;23;20234;-71
2022/04/02 11:54:30;;;;;;;;;;;;;;;7.07;48.57;101838.06;6125588;23;19959;-69
2022/04/02 11:57:09;;;;;;;;;;;;;;;6.97;48.78;101834.38;6101027;23;19921;-72
2022/04/02 11:59:37;;;;;;;;;;;;;;;7.06;49.72;101834.53;6125569;23;20706;-71
2022/04/02 12:02:03;;;;;;;;;;;;;;;7.34;49.83;101828.97;6125357;23;19995;-72
2022/04/02 12:04:29;;;;;;;;;;;;;;;7.80;49.42;101841.03;6125843;23;19909;-71
2022/04/02 12:07:03;;;;;;;;;;;;;;;8.45;47.83;101831.56;6100811;23;20215;-71
2022/04/02 12:09:29;;;;;;;;;;;;;;;9.73;46.43;101839.84;6124944;23;20315;-71
2022/04/02 12:12:01;;;;;;;;;;;;;;;9.61;46.32;101835.38;6100515;23;19916;-71
2022/04/02 12:14:32;;;;;;;;;;;;;;;8.87;44.96;101845.13;6124846;23;19908;-72
2022/04/02 12:17:09;;;;;;;;;;;;;;;7.93;46.38;101831.66;6125003;23;19916;-72
2022/04/02 12:19:40;;;;;;;;;;;;;;;7.25;46.55;101830.53;6125761;23;19916;-71
2022/04/02 12:22:16;;;;;;;;;;;;;;;6.92;47.84;101836.00;6124692;23;19952;-69
2022/04/02 12:24:47;;;;;;;;;;;;;;;6.71;48.75;101841.66;6100694;23;20343;-71
2022/04/02 12:27:15;;;;;;;;;;;;;;;6.51;49.23;101843.91;6124984;23;19915;-70
2022/04/02 12:29:44;;;;;;;;;;;;;;;6.55;46.10;101830.97;6125917;23;19913;-71
2022/04/02 12:32:10;;;;;;;;;;;;;;;7.07;47.44;101840.66;6151647;23;19912;-71
2022/04/02 12:34:36;;;;;;;;;;;;;;;7.42;47.94;101832.59;6125768;23;20346;-72
2022/04/02 12:37:02;;;;;;;;;;;;;;;7.79;43.09;101828.84;6100911;23;20173;-71
2022/04/02 12:39:27;;;;;;;;;;;;;;;7.82;44.64;101828.00;6125466;23;19995;-69
2022/04/02 12:41:53;;;;;;;;;;;;;;;7.97;44.33;101832.56;6125422;23;19987;-72
2022/04/02 12:44:23;;;;;;;;;;;;;;;8.01;44.22;101834.38;6100840;23;19912;-72
2022/04/02 12:46:52;;;;;;;;;;;;;;;7.89;42.68;101842.91;6125761;23;19909;-72
2022/04/02 12:49:30;;;;;;;;;;;;;;;7.53;44.95;101843.19;6125696;23;20384;-71
2022/04/02 12:52:17;;;;;;;;;;;;;;;7.09;43.94;101842.41;6125239;23;20335;-72